AirNav   TITAN Aviation Fuels
 
 417 users online  

2IN0 Skip's Place Airport
Ossian, Indiana, USA

GOING TO OSSIAN?


FAA INFORMATION EFFECTIVE 22 APRIL 2021

Location

FAA Identifier: 2IN0
Lat/Long: 40-50-13.0000N 085-10-16.0000W
40-50.216667N 085-10.266667W
40.8369444,-85.1711111
(estimated)
Elevation: 858 ft. / 262 m (estimated)
Variation: 04W (1995)
From city: 2 miles S of OSSIAN, IN
Time zone: UTC -4 (UTC -5 during Standard Time)
Zip code: 46777

Airport Operations

Airport use: Private use. Permission required prior to landing
Activation date: 05/1999
Control tower: no
ARTCC: CHICAGO CENTER
FSS: TERRE HAUTE FLIGHT SERVICE STATION
Attendance: UNATNDD
Segmented circle: no

Airport Communications

WX ASOS at FWA (9 nm N): PHONE 260-479-6621
WX AWOS-3PT at HHG (13 nm W): 126.575 (260-454-1927)
WX AWOS-3 at SMD (18 nm N): 124.55 (260-490-4030)

Nearby radio navigation aids

VOR radial/distance  VOR name  Freq  Var
FWAr181/8.6FORT WAYNE VORTAC117.8006W
OLKr152/(28.7)WEBSTER LAKE VOR110.4003W
MZZr051/31.0MARION VOR/DME108.6003W
MIEr019/37.4MUNCIE VOR/DME114.4003W

Airport Services

Runway Information

Runway 9/27

Dimensions: 2050 x 75 ft. / 625 x 23 m
Surface: turf
RUNWAY 9  RUNWAY 27
Traffic pattern: leftleft
Displaced threshold: 150 ft.500 ft.
RY 09/27 DSPLCD THLDS MKD WITH CONES.
Obstructions: 30 ft. pole, 600 ft. from runway30 ft. pole, 900 ft. from runway

Airport Ownership and Management from official FAA records

Ownership: Privately-owned
Owner: HARVEY & MARIE REICHELT
6382 N SR 1
OSSIAN, IN 46777
Phone 260-622-4211
Manager: HARVEY & MARIE REICHELT
6382 N SR 1
OSSIAN, IN 46777
Phone 260-622-4211

Airport Operational Statistics

Aircraft based on the field: 3
Single engine airplanes: 3
    

Additional Remarks

FOR CD CTC CHICAGO ARTCC AT 630-906-8921.

Instrument Procedures

There are no published instrument procedures at 2IN0.

Some nearby airports with instrument procedures:

KFWA - Fort Wayne International Airport (9 nm N)
KHHG - Huntington Municipal Airport (13 nm W)
KSMD - Smith Field Airport (18 nm N)
KPLD - Portland Municipal Airport (25 nm S)
KVNW - Van Wert County Airport (26 nm E)
 
Loc | Ops | Rwys | IFR | FBO | Links
Com | Nav | Svcs | Stats | Notes
Area around 2IN0 (Skip's Place Airport)
 
Road maps at: MapQuest Bing Google
 
Aerial photo
No photo
 
Sectional chart

 
Airport distance calculator
Flying to Skip's Place Airport? Find the distance to fly.

From to 2IN0

Sunrise and sunset
Times for 11-May-2021
 Local
(UTC-4)
 Zulu
(UTC)
Morning civil twilight05:5709:57
Sunrise06:2810:28
Sunset20:4600:46
Evening civil twilight21:1701:17

Current date and time
Zulu (UTC)  11-May-2021 07:42:57
Local (UTC-4)  11-May-2021 03:42:57
 
METAR
KFWA 
8nm N 
110654Z 34008KT 10SM BKN100 BKN120 BKN140 06/M01 A3019 RMK AO2 SLP226 T00561011 $
KHHG 
13nm W 
110715Z AUTO 35004KT 10SM SCT100 SCT120 05/M02 A3019 RMK AO2 T00531021
KSMD 
18nm N 
110715Z AUTO 34005KT 10SM FEW110 05/M02 A3019 RMK A01
TAF
KFWA 
8nm N 
110520Z 1106/1206 35007KT P6SM BKN090 FM111500 33012G20KT P6SM SCT045 FM120000 33003KT P6SM SKC
NOTAMs
Click for the latest NOTAMs
NOTAMs are issued by the DoD/FAA and will open in a separate window not controlled by AirNav.

 

 
 

Would you like to see your business listed on this page?

 If your business provides an interesting product or service to pilots, flight crews, aircraft, or users of the Skip's Place Airport, you should consider listing it here.  To start the listing process, click on the button below
 
Add a business
 

Other Pages about Skip's Place Airport

Update a link
 
Copyright © AirNav, LLC. All rights reserved. Privacy Policy  Contact